Time;durP1;ratioP1;P1;durP2;ratioP2;P2;SDS_P1;SDS_P2;PMS_P1;PMS_P2;Temp;Humidity;BMP_temperature;BMP_pressure;BME280_temperature;BME280_humidity;BME280_pressure;Samples;Min_cycle;Max_cycle;Signal;HPM_P1;HPM_P2
2022/11/12 00:00:50;;;;;;;21.57;7.40;;;;;;;6.58;100.00;97865.06;5069812;28;20223;-70
2022/11/12 00:03:16;;;;;;;16.50;7.23;;;;;;;6.65;100.00;97866.28;5060796;28;20208;-70
2022/11/12 00:05:44;;;;;;;25.20;6.97;;;;;;;6.73;100.00;97871.78;5073338;28;20203;-70
2022/11/12 00:08:11;;;;;;;24.60;6.90;;;;;;;6.74;100.00;97873.44;5058596;28;20224;-69
2022/11/12 00:10:37;;;;;;;34.87;6.53;;;;;;;6.69;100.00;97868.56;5067252;28;20199;-70
2022/11/12 00:13:05;;;;;;;37.43;7.13;;;;;;;6.84;100.00;97870.03;5055810;28;20226;-70
2022/11/12 00:15:32;;;;;;;33.67;7.47;;;;;;;6.76;100.00;97871.56;5057831;28;20216;-70
2022/11/12 00:17:58;;;;;;;40.23;6.67;;;;;;;6.62;100.00;97871.75;5060742;28;20232;-70
2022/11/12 00:20:25;;;;;;;35.40;7.77;;;;;;;6.77;100.00;97873.22;5062536;28;20234;-69
2022/11/12 00:22:51;;;;;;;40.93;6.40;;;;;;;6.71;100.00;97864.03;5072852;28;21132;-69
2022/11/12 00:25:18;;;;;;;25.30;6.87;;;;;;;6.74;100.00;97868.22;5066226;28;20203;-70
2022/11/12 00:27:45;;;;;;;29.20;5.93;;;;;;;6.76;100.00;97874.19;5065031;28;20235;-69
2022/11/12 00:30:13;;;;;;;16.97;6.07;;;;;;;6.80;100.00;97870.38;5066399;28;20200;-70
2022/11/12 00:32:39;;;;;;;17.93;5.77;;;;;;;6.79;100.00;97868.69;5075750;28;20195;-70
2022/11/12 00:35:07;;;;;;;19.00;5.43;;;;;;;6.73;100.00;97870.00;5071198;28;20691;-70
2022/11/12 00:37:34;;;;;;;30.47;5.67;;;;;;;6.73;100.00;97874.38;5072545;28;20224;-68
2022/11/12 00:40:00;;;;;;;16.83;5.83;;;;;;;6.63;100.00;97870.78;5065780;28;20224;-69
2022/11/12 00:42:26;;;;;;;15.30;5.03;;;;;;;6.52;100.00;97869.91;5060523;28;20211;-68
2022/11/12 00:44:53;;;;;;;20.03;5.13;;;;;;;6.48;100.00;97866.69;5076627;28;20200;-68
2022/11/12 00:47:21;;;;;;;24.83;6.10;;;;;;;6.64;100.00;97869.00;5061256;28;20224;-68
2022/11/12 00:49:47;;;;;;;31.20;6.27;;;;;;;6.63;100.00;97872.56;5072879;28;20196;-69
2022/11/12 00:52:14;;;;;;;22.40;4.77;;;;;;;6.69;100.00;97878.19;5057473;28;20661;-68
2022/11/12 00:54:40;;;;;;;32.37;6.07;;;;;;;6.66;100.00;97871.38;5069388;28;20678;-69
2022/11/12 00:57:07;;;;;;;23.17;5.90;;;;;;;6.72;100.00;97855.22;5066550;28;20231;-69
2022/11/12 00:59:33;;;;;;;18.57;5.60;;;;;;;6.55;100.00;97867.06;5065050;28;20566;-68
2022/11/12 01:02:00;;;;;;;48.30;6.37;;;;;;;6.32;100.00;97860.88;5060916;28;20668;-68
2022/11/12 01:04:28;;;;;;;22.97;5.63;;;;;;;6.50;100.00;97859.53;5061576;28;20203;-69
2022/11/12 01:06:54;;;;;;;8.17;4.77;;;;;;;6.45;100.00;97855.59;5065410;28;21135;-69
2022/11/12 01:09:21;;;;;;;33.87;5.27;;;;;;;6.47;100.00;97858.94;5061768;28;20201;-69
2022/11/12 01:11:48;;;;;;;15.70;5.83;;;;;;;6.45;100.00;97858.22;5062095;28;20247;-68
2022/11/12 01:14:14;;;;;;;10.40;6.03;;;;;;;6.57;100.00;97855.53;5067572;28;20300;-69
2022/11/12 01:16:41;;;;;;;23.43;5.23;;;;;;;6.59;100.00;97853.63;5059839;28;20227;-68
2022/11/12 01:19:10;;;;;;;33.40;5.73;;;;;;;6.55;100.00;97846.94;5076245;28;20628;-69
2022/11/12 01:21:40;;;;;;;45.60;5.70;;;;;;;6.52;100.00;97852.41;5059082;28;20224;-69
2022/11/12 01:24:07;;;;;;;12.43;5.53;;;;;;;6.58;100.00;97851.13;5063151;28;20208;-69
2022/11/12 01:26:34;;;;;;;34.90;6.17;;;;;;;6.54;100.00;97849.69;5066321;28;20293;-69
2022/11/12 01:29:00;;;;;;;24.97;6.37;;;;;;;6.60;100.00;97844.81;5062440;28;20215;-69
2022/11/12 01:31:29;;;;;;;14.20;6.07;;;;;;;6.78;100.00;97838.22;5063659;28;20212;-69
2022/11/12 01:33:57;;;;;;;16.90;5.97;;;;;;;6.73;100.00;97850.81;5063782;28;20219;-69
2022/11/12 01:36:25;;;;;;;27.47;6.20;;;;;;;6.71;100.00;97844.88;5073153;28;20211;-69
2022/11/12 01:38:53;;;;;;;13.77;5.40;;;;;;;6.75;100.00;97841.88;5058412;28;20204;-69
2022/11/12 01:41:23;;;;;;;15.10;6.00;;;;;;;6.87;100.00;97837.50;5058875;28;20235;-69
2022/11/12 01:44:12;;;;;;;21.67;6.43;;;;;;;6.89;100.00;97836.44;5057551;28;20921;-68
2022/11/12 01:46:58;;;;;;;31.47;6.43;;;;;;;6.85;100.00;97828.94;5060551;28;20224;-68
2022/11/12 01:49:29;;;;;;;22.10;5.90;;;;;;;6.73;100.00;97833.31;5060707;28;20204;-69
2022/11/12 01:51:58;;;;;;;28.30;6.13;;;;;;;6.72;100.00;97836.03;5065042;28;20204;-69
2022/11/12 01:54:27;;;;;;;41.93;6.03;;;;;;;6.78;100.00;97841.69;5072230;28;20667;-68
2022/11/12 01:56:57;;;;;;;10.23;5.33;;;;;;;6.71;100.00;97850.09;5073027;28;20230;-68
2022/11/12 01:59:28;;;;;;;22.83;5.80;;;;;;;6.84;100.00;97841.19;5069504;28;20203;-68
2022/11/12 02:01:55;;;;;;;16.50;6.23;;;;;;;6.79;100.00;97839.88;5082133;28;20231;-69
2022/11/12 02:04:23;;;;;;;13.17;5.67;;;;;;;6.80;100.00;97836.31;5063808;28;20894;-69
2022/11/12 02:06:52;;;;;;;20.37;4.93;;;;;;;6.80;100.00;97838.94;5069375;28;20224;-69
2022/11/12 02:09:19;;;;;;;23.07;5.67;;;;;;;6.70;100.00;97836.16;5066426;28;21062;-69
2022/11/12 02:11:47;;;;;;;21.70;5.70;;;;;;;6.78;100.00;97833.81;5065640;28;20196;-69
2022/11/12 02:14:13;;;;;;;19.07;5.77;;;;;;;6.76;100.00;97837.50;5064055;28;20215;-69
2022/11/12 02:16:42;;;;;;;23.20;5.53;;;;;;;6.85;100.00;97831.56;5072868;28;20565;-68
2022/11/12 02:19:12;;;;;;;14.90;5.40;;;;;;;6.85;100.00;97827.16;5067891;28;20203;-68
2022/11/12 02:21:40;;;;;;;21.07;5.37;;;;;;;6.83;100.00;97825.59;5067506;28;20220;-69
2022/11/12 02:24:39;;;;;;;11.37;6.70;;;;;;;6.77;100.00;97832.16;5071217;28;20225;-68
2022/11/12 02:27:06;;;;;;;30.17;5.30;;;;;;;6.43;100.00;97826.91;5073740;28;20227;-69
2022/11/12 02:29:33;;;;;;;33.87;5.03;;;;;;;6.21;100.00;97824.22;5063844;28;20245;-68
2022/11/12 02:31:59;;;;;;;42.00;5.10;;;;;;;6.21;100.00;97829.44;5068948;28;20200;-68
2022/11/12 02:34:26;;;;;;;30.40;5.43;;;;;;;6.17;100.00;97820.16;5062582;28;20620;-69
2022/11/12 02:36:54;;;;;;;10.07;4.87;;;;;;;6.44;100.00;97810.25;5070927;28;20248;-69
2022/11/12 02:39:20;;;;;;;20.17;5.53;;;;;;;6.39;100.00;97815.00;5072614;28;20211;-68
2022/11/12 02:41:47;;;;;;;31.43;4.80;;;;;;;6.52;100.00;97815.75;5081352;28;20227;-69
2022/11/12 02:44:13;;;;;;;15.90;5.63;;;;;;;6.51;100.00;97813.25;5072644;28;20199;-68
2022/11/12 02:46:40;;;;;;;10.93;5.53;;;;;;;6.55;100.00;97812.06;5074772;28;20220;-69
2022/11/12 02:49:06;;;;;;;10.40;5.77;;;;;;;6.55;100.00;97810.28;5069848;28;20219;-69
2022/11/12 02:51:32;;;;;;;13.77;4.77;;;;;;;6.57;100.00;97813.63;5067112;28;20208;-68
2022/11/12 02:54:00;;;;;;;18.40;5.50;;;;;;;6.65;100.00;97811.28;5068167;28;20207;-69
2022/11/12 02:56:27;;;;;;;23.23;4.77;;;;;;;6.45;100.00;97809.28;5063415;28;20208;-69
2022/11/12 02:58:53;;;;;;;22.80;4.73;;;;;;;6.38;100.00;97818.56;5074377;28;21009;-68
2022/11/12 03:01:20;;;;;;;10.70;3.97;;;;;;;6.25;100.00;97823.03;5071712;28;20220;-68
2022/11/12 03:03:46;;;;;;;18.87;4.30;;;;;;;6.21;100.00;97813.75;5068991;28;20206;-69
2022/11/12 03:06:13;;;;;;;22.07;4.50;;;;;;;6.23;100.00;97814.44;5067521;28;21045;-68
2022/11/12 03:08:39;;;;;;;8.10;3.70;;;;;;;6.19;100.00;97817.41;5071991;28;20196;-68
2022/11/12 03:11:09;;;;;;;9.33;4.10;;;;;;;6.26;100.00;97813.38;5066959;28;20199;-68
2022/11/12 03:13:35;;;;;;;14.03;4.50;;;;;;;6.27;100.00;97813.25;5056927;28;20196;-68
2022/11/12 03:16:02;;;;;;;21.07;4.27;;;;;;;6.18;100.00;97818.34;5060042;28;20215;-69
2022/11/12 03:18:29;;;;;;;10.33;4.03;;;;;;;6.27;100.00;97821.13;5068166;28;20270;-69
2022/11/12 03:20:55;;;;;;;10.20;4.10;;;;;;;6.17;100.00;97816.69;5070809;28;20387;-69
2022/11/12 03:23:22;;;;;;;11.70;4.03;;;;;;;6.25;100.00;97807.31;5058942;28;20578;-68
2022/11/12 03:25:49;;;;;;;9.20;4.03;;;;;;;6.06;100.00;97820.09;5061499;28;20571;-68
2022/11/12 03:28:17;;;;;;;7.20;3.97;;;;;;;6.23;100.00;97817.06;5074160;28;20231;-68
2022/11/12 03:30:44;;;;;;;9.50;4.50;;;;;;;6.31;100.00;97819.97;5059694;28;20200;-68
2022/11/12 03:33:12;;;;;;;24.00;4.10;;;;;;;6.33;100.00;97815.44;5068513;28;20208;-68
2022/11/12 03:35:39;;;;;;;18.57;4.40;;;;;;;6.25;100.00;97820.41;5059262;28;20208;-68
2022/11/12 03:38:07;;;;;;;29.47;4.83;;;;;;;6.07;100.00;97816.53;5063079;28;20231;-68
2022/11/12 03:40:34;;;;;;;28.47;4.93;;;;;;;6.30;100.00;97822.69;5061150;28;20212;-68
2022/11/12 03:43:00;;;;;;;9.17;4.17;;;;;;;6.35;100.00;97823.19;5063475;28;20710;-68
2022/11/12 03:45:28;;;;;;;10.37;4.03;;;;;;;6.48;100.00;97818.69;5066223;28;20566;-69
2022/11/12 03:47:57;;;;;;;13.33;4.47;;;;;;;6.50;100.00;97827.28;5064785;28;20246;-68
2022/11/12 03:50:25;;;;;;;10.83;4.40;;;;;;;6.48;100.00;97830.03;5065691;28;20204;-68
2022/11/12 03:52:54;;;;;;;22.97;5.67;;;;;;;6.45;100.00;97824.19;5058492;28;20200;-68
2022/11/12 03:55:23;;;;;;;13.23;5.20;;;;;;;6.45;100.00;97830.22;5063843;28;20204;-68
2022/11/12 03:57:50;;;;;;;17.97;5.13;;;;;;;6.37;100.00;97819.50;5065986;28;20228;-68
2022/11/12 04:00:18;;;;;;;21.90;4.70;;;;;;;6.37;100.00;97829.16;5058500;28;20207;-68
2022/11/12 04:02:45;;;;;;;10.83;4.17;;;;;;;6.46;100.00;97820.63;5058115;28;20230;-68
2022/11/12 04:10:42;;;;;;;16.33;4.63;;;;;;;6.42;100.00;97819.19;5058321;28;20245;-68
2022/11/12 04:13:27;;;;;;;6.90;4.33;;;;;;;6.53;100.00;97814.81;5059829;28;20208;-69
2022/11/12 04:24:04;;;;;;;13.83;4.60;;;;;;;6.49;100.00;97817.75;5066364;28;20218;-69
2022/11/12 04:26:30;;;;;;;9.17;4.80;;;;;;;6.52;100.00;97818.38;5059173;28;20220;-68
2022/11/12 04:31:41;;;;;;;14.83;5.33;;;;;;;6.58;100.00;97815.31;5062103;28;20239;-68
2022/11/12 04:36:53;;;;;;;13.20;5.00;;;;;;;6.63;100.00;97814.94;5064887;28;20313;-68
2022/11/12 04:39:19;;;;;;;14.37;4.80;;;;;;;6.60;100.00;97809.94;5059320;28;20212;-68
2022/11/12 04:47:19;;;;;;;24.90;5.40;;;;;;;6.61;100.00;97817.69;5047466;28;20260;-68
2022/11/12 04:49:47;;;;;;;16.90;5.17;;;;;;;6.69;100.00;97817.94;5060591;28;20212;-68
2022/11/12 04:52:13;;;;;;;19.00;5.17;;;;;;;6.52;100.00;97810.53;5066260;28;21171;-68
2022/11/12 04:54:40;;;;;;;9.43;4.83;;;;;;;6.61;100.00;97809.84;5064895;28;20200;-69
2022/11/12 04:57:07;;;;;;;9.27;4.90;;;;;;;6.55;100.00;97812.91;5057566;28;20225;-68
2022/11/12 04:59:33;;;;;;;15.40;4.97;;;;;;;6.65;100.00;97806.03;5065575;28;20295;-68
2022/11/12 05:02:00;;;;;;;10.40;5.03;;;;;;;6.69;100.00;97810.94;5057599;28;20224;-68
2022/11/12 05:04:27;;;;;;;8.97;5.43;;;;;;;6.68;100.00;97821.50;5063251;28;20212;-68
2022/11/12 05:06:56;;;;;;;34.30;6.00;;;;;;;6.67;100.00;97822.47;5057614;28;20216;-68
2022/11/12 05:09:24;;;;;;;20.77;5.77;;;;;;;6.71;100.00;97829.97;5066638;28;20695;-68
2022/11/12 05:11:51;;;;;;;17.27;5.67;;;;;;;6.69;100.00;97824.03;5057382;28;20200;-68
2022/11/12 05:14:18;;;;;;;12.20;5.20;;;;;;;6.57;100.00;97829.34;5054420;28;20941;-68
2022/11/12 05:16:45;;;;;;;19.20;5.40;;;;;;;6.46;100.00;97821.44;5067457;28;20234;-68
2022/11/12 05:19:11;;;;;;;13.87;6.10;;;;;;;6.58;100.00;97825.78;5060864;28;20573;-69
2022/11/12 05:24:23;;;;;;;9.53;5.40;;;;;;;6.55;100.00;97823.38;5058308;28;20231;-69
2022/11/12 05:26:50;;;;;;;16.97;5.23;;;;;;;6.58;100.00;97820.53;5063403;28;20956;-68
2022/11/12 05:29:16;;;;;;;15.03;5.37;;;;;;;6.51;100.00;97821.13;5066305;28;20254;-69
2022/11/12 05:31:43;;;;;;;10.60;5.17;;;;;;;6.64;100.00;97827.09;5057465;28;20687;-68
2022/11/12 05:34:10;;;;;;;23.03;4.80;;;;;;;6.59;100.00;97832.66;5060242;28;20200;-68
2022/11/12 05:36:37;;;;;;;15.70;5.17;;;;;;;6.64;100.00;97825.31;5056927;28;20231;-69
2022/11/12 05:39:03;;;;;;;14.90;5.37;;;;;;;6.68;100.00;97826.75;5067528;28;20231;-68
2022/11/12 05:41:31;;;;;;;12.50;5.77;;;;;;;6.71;100.00;97811.63;5059947;28;20223;-69
2022/11/12 05:43:58;;;;;;;13.90;5.97;;;;;;;6.67;100.00;97825.09;5062617;28;20204;-68
2022/11/12 05:46:24;;;;;;;12.50;6.10;;;;;;;6.65;100.00;97815.69;5060547;28;20215;-69
2022/11/12 05:48:51;;;;;;;13.23;5.40;;;;;;;6.76;100.00;97813.94;5063830;28;20201;-68
2022/11/12 05:51:17;;;;;;;12.73;5.70;;;;;;;6.79;100.00;97818.91;5062560;28;20848;-68
2022/11/12 05:53:44;;;;;;;11.77;5.77;;;;;;;6.71;100.00;97823.91;5062905;28;20208;-68
2022/11/12 05:56:11;;;;;;;21.13;6.40;;;;;;;6.67;100.00;97830.34;5060351;28;20203;-68
2022/11/12 05:58:39;;;;;;;15.57;6.57;;;;;;;6.73;100.00;97832.47;5057064;28;20652;-68
2022/11/12 06:01:06;;;;;;;18.50;6.13;;;;;;;6.65;100.00;97829.59;5063589;28;20601;-69
2022/11/12 06:03:33;;;;;;;21.20;6.43;;;;;;;6.67;100.00;97835.56;5061208;28;20200;-68
2022/11/12 06:06:00;;;;;;;27.73;6.20;;;;;;;6.62;100.00;97827.22;5068780;28;20204;-68
2022/11/12 06:08:26;;;;;;;27.27;8.17;;;;;;;6.70;100.00;97825.69;5064509;28;20243;-68
2022/11/12 06:10:54;;;;;;;27.90;10.23;;;;;;;6.65;100.00;97823.53;5058329;28;20218;-68
2022/11/12 06:13:22;;;;;;;25.63;7.70;;;;;;;6.59;100.00;97827.44;5055847;28;20204;-69
2022/11/12 06:15:50;;;;;;;18.00;5.70;;;;;;;6.71;100.00;97821.28;5061961;28;20613;-68
2022/11/12 06:18:16;;;;;;;17.10;6.40;;;;;;;6.59;100.00;97830.06;5059749;28;20224;-68
2022/11/12 06:20:43;;;;;;;31.83;11.87;;;;;;;6.69;100.00;97828.41;5057819;28;20201;-68
2022/11/12 06:23:09;;;;;;;30.97;11.57;;;;;;;6.66;100.00;97828.66;5062105;28;20220;-68
2022/11/12 06:25:36;;;;;;;95.03;40.57;;;;;;;6.70;100.00;97827.47;5066629;28;20578;-68
2022/11/12 06:28:03;;;;;;;60.67;28.33;;;;;;;6.68;100.00;97826.75;5061650;28;20220;-68
2022/11/12 06:30:29;;;;;;;58.23;22.17;;;;;;;6.64;100.00;97825.31;5060400;28;20208;-69
2022/11/12 06:32:57;;;;;;;51.93;17.70;;;;;;;6.75;100.00;97828.78;5064059;28;20579;-68
2022/11/12 06:35:23;;;;;;;38.10;9.80;;;;;;;6.67;100.00;97835.56;5058203;28;20212;-68
2022/11/12 06:37:50;;;;;;;22.53;7.20;;;;;;;6.73;100.00;97824.63;5067905;28;20220;-68
2022/11/12 06:40:16;;;;;;;18.60;6.00;;;;;;;6.75;100.00;97834.03;5063678;28;20672;-68
2022/11/12 06:42:43;;;;;;;20.30;6.93;;;;;;;6.79;100.00;97835.47;5075709;28;20560;-68
2022/11/12 06:45:10;;;;;;;20.03;6.73;;;;;;;6.79;100.00;97834.66;5069553;28;20207;-68
2022/11/12 06:47:36;;;;;;;23.13;7.00;;;;;;;6.86;100.00;97835.84;5063566;28;20220;-68
2022/11/12 06:50:05;;;;;;;28.17;8.30;;;;;;;6.92;100.00;97824.91;5065636;28;20204;-68
2022/11/12 06:52:31;;;;;;;28.43;10.27;;;;;;;6.87;100.00;97835.75;5061629;28;20200;-68
2022/11/12 06:54:58;;;;;;;24.30;9.17;;;;;;;6.85;100.00;97844.66;5064199;28;20204;-68
2022/11/12 06:57:24;;;;;;;20.47;8.30;;;;;;;6.90;100.00;97850.41;5062649;28;20220;-68
2022/11/12 06:59:51;;;;;;;23.77;7.20;;;;;;;6.88;100.00;97844.44;5065922;28;20572;-68
2022/11/12 07:02:17;;;;;;;18.33;6.57;;;;;;;6.85;100.00;97832.41;5067526;28;20238;-68
2022/11/12 07:04:44;;;;;;;31.70;8.63;;;;;;;6.81;100.00;97830.97;5067116;28;20200;-68
2022/11/12 07:07:12;;;;;;;22.97;7.73;;;;;;;6.95;100.00;97829.91;5064572;28;20604;-68
2022/11/12 07:09:38;;;;;;;23.07;7.43;;;;;;;7.01;100.00;97829.44;5064688;28;20204;-68
2022/11/12 07:12:05;;;;;;;29.60;6.97;;;;;;;6.98;100.00;97829.69;5063965;28;20207;-68
2022/11/12 07:14:32;;;;;;;22.20;6.73;;;;;;;6.93;100.00;97837.06;5064363;28;20208;-68
2022/11/12 07:16:58;;;;;;;14.37;6.93;;;;;;;6.92;100.00;97830.13;5065536;28;20228;-68
2022/11/12 07:19:25;;;;;;;15.60;6.90;;;;;;;6.96;100.00;97826.34;5069724;28;21030;-68
2022/11/12 07:21:51;;;;;;;26.33;8.03;;;;;;;6.94;100.00;97830.88;5058977;28;20224;-68
2022/11/12 07:24:19;;;;;;;29.23;7.80;;;;;;;7.08;100.00;97830.66;5061169;28;20219;-69
2022/11/12 07:26:46;;;;;;;21.27;8.20;;;;;;;7.02;100.00;97834.56;5059587;28;20216;-70
2022/11/12 07:29:12;;;;;;;15.70;6.63;;;;;;;6.99;100.00;97831.34;5058960;28;20205;-71
2022/11/12 07:31:39;;;;;;;27.77;6.30;;;;;;;6.84;100.00;97838.56;5059470;28;20201;-69
2022/11/12 07:34:05;;;;;;;41.53;6.33;;;;;;;6.97;100.00;97839.31;5058217;28;20914;-69
2022/11/12 07:36:32;;;;;;;19.93;6.40;;;;;;;6.98;100.00;97837.56;5057857;28;20243;-70
2022/11/12 07:39:00;;;;;;;15.23;6.80;;;;;;;7.05;100.00;97830.88;5057296;28;20307;-69
2022/11/12 07:41:27;;;;;;;34.50;9.27;;;;;;;7.03;100.00;97825.75;5058957;28;20227;-69
2022/11/12 07:43:54;;;;;;;18.27;7.93;;;;;;;7.05;100.00;97825.63;5058371;28;20201;-70
2022/11/12 07:46:23;;;;;;;14.83;7.13;;;;;;;7.19;100.00;97830.66;5058969;28;20200;-70
2022/11/12 07:48:50;;;;;;;30.83;8.90;;;;;;;7.21;100.00;97826.13;5063838;28;20206;-69
2022/11/12 07:51:18;;;;;;;28.83;8.10;;;;;;;7.17;100.00;97825.53;5058748;28;20204;-69
2022/11/12 07:53:47;;;;;;;26.50;10.13;;;;;;;7.17;100.00;97820.28;5062384;28;20216;-70
2022/11/12 07:56:16;;;;;;;46.47;10.80;;;;;;;7.25;100.00;97822.31;5062194;28;20573;-69
2022/11/12 07:58:44;;;;;;;25.27;9.80;;;;;;;7.18;100.00;97824.59;5058546;28;20227;-70
2022/11/12 08:01:24;;;;;;;27.10;8.20;;;;;;;7.04;100.00;97835.28;5058310;28;20213;-70
2022/11/12 08:03:50;;;;;;;32.60;6.67;;;;;;;6.93;100.00;97827.41;5058183;28;20227;-69
2022/11/12 08:06:16;;;;;;;29.73;5.30;;;;;;;6.89;100.00;97836.44;5057739;28;20214;-70
2022/11/12 08:08:43;;;;;;;15.47;5.43;;;;;;;6.88;100.00;97839.19;5058296;28;20211;-70
2022/11/12 08:11:09;;;;;;;12.83;5.87;;;;;;;6.96;100.00;97842.06;5058915;28;20699;-69
2022/11/12 08:13:36;;;;;;;19.07;6.13;;;;;;;6.97;100.00;97838.50;5057510;28;20311;-70
2022/11/12 08:16:04;;;;;;;29.00;6.47;;;;;;;7.08;100.00;97835.91;5058482;28;20209;-71
2022/11/12 08:18:32;;;;;;;19.53;6.03;;;;;;;7.13;100.00;97846.84;5058759;28;20692;-69
2022/11/12 08:21:00;;;;;;;12.43;6.33;;;;;;;7.14;100.00;97840.66;5058896;28;20800;-70
2022/11/12 08:23:27;;;;;;;25.53;5.63;;;;;;;7.02;100.00;97852.09;5057225;28;20225;-70
2022/11/12 08:25:57;;;;;;;16.93;7.17;;;;;;;6.98;100.00;97855.91;5058501;28;20207;-70
2022/11/12 08:28:24;;;;;;;25.40;6.30;;;;;;;6.81;100.00;97849.31;5058149;28;20441;-71
2022/11/12 08:30:50;;;;;;;22.33;6.00;;;;;;;6.80;100.00;97852.03;5058331;28;20200;-70
2022/11/12 08:33:18;;;;;;;17.50;6.57;;;;;;;7.02;100.00;97838.97;5057220;28;20933;-70
2022/11/12 08:35:45;;;;;;;29.33;6.47;;;;;;;7.09;100.00;97833.16;5058235;28;20211;-70
2022/11/12 08:38:12;;;;;;;11.33;5.33;;;;;;;7.06;100.00;97832.56;5058257;28;20225;-70
2022/11/12 08:40:40;;;;;;;13.13;6.07;;;;;;;7.10;100.00;97839.22;5058205;28;20295;-70
2022/11/12 08:43:08;;;;;;;38.43;6.83;;;;;;;7.19;100.00;97838.50;5057056;28;20225;-71
2022/11/12 08:45:36;;;;;;;23.87;7.47;;;;;;;7.23;100.00;97843.41;5058195;28;20204;-69
2022/11/12 08:48:05;;;;;;;29.93;7.17;;;;;;;7.25;100.00;97838.88;5057499;28;20228;-68
2022/11/12 08:50:33;;;;;;;17.10;6.07;;;;;;;7.27;100.00;97839.59;5057904;28;20691;-68
2022/11/12 08:53:01;;;;;;;17.30;6.13;;;;;;;7.22;100.00;97835.66;5055698;28;20204;-69
2022/11/12 08:55:28;;;;;;;25.40;6.47;;;;;;;7.20;100.00;97840.19;5057800;28;20204;-69
2022/11/12 08:57:58;;;;;;;21.03;6.13;;;;;;;7.08;100.00;97841.16;5057683;28;20233;-68
2022/11/12 09:00:24;;;;;;;19.13;6.27;;;;;;;7.27;100.00;97847.47;5061685;28;20212;-68
2022/11/12 09:02:51;;;;;;;20.20;6.87;;;;;;;7.12;100.00;97846.03;5065720;28;20803;-68
2022/11/12 09:05:17;;;;;;;23.50;7.30;;;;;;;7.20;100.00;97851.50;5060079;28;20204;-69
2022/11/12 09:07:45;;;;;;;14.20;5.53;;;;;;;7.07;100.00;97848.16;5071403;28;20231;-68
2022/11/12 09:10:12;;;;;;;11.47;5.43;;;;;;;6.98;100.00;97848.03;5059422;28;20212;-68
2022/11/12 09:12:38;;;;;;;15.83;6.23;;;;;;;7.24;100.00;97849.50;5056600;28;20223;-68
2022/11/12 09:15:06;;;;;;;14.93;6.83;;;;;;;7.30;100.00;97848.06;5058708;28;21004;-68
2022/11/12 09:17:34;;;;;;;29.57;5.63;;;;;;;7.26;100.00;97845.78;5057787;28;20228;-68
2022/11/12 09:20:00;;;;;;;20.50;6.57;;;;;;;7.21;100.00;97847.13;5056852;28;20201;-68
2022/11/12 09:22:27;;;;;;;16.07;6.97;;;;;;;7.30;100.00;97834.94;5057132;28;20243;-69
2022/11/12 09:24:54;;;;;;;17.70;6.40;;;;;;;7.28;100.00;97842.09;5055270;28;20940;-68
2022/11/12 09:27:21;;;;;;;13.50;5.20;;;;;;;7.40;100.00;97833.28;5064427;28;20220;-68
2022/11/12 09:29:47;;;;;;;14.30;5.90;;;;;;;7.34;100.00;97848.66;5062390;28;20616;-69
2022/11/12 09:32:14;;;;;;;16.13;6.10;;;;;;;7.46;100.00;97851.16;5061251;28;20204;-68
2022/11/12 09:34:40;;;;;;;14.23;5.67;;;;;;;7.33;100.00;97842.59;5069191;28;20201;-68
2022/11/12 09:37:07;;;;;;;13.57;5.73;;;;;;;7.42;100.00;97839.25;5057126;28;20232;-68
2022/11/12 09:39:33;;;;;;;12.07;5.23;;;;;;;7.64;100.00;97841.03;5058350;28;20205;-68
2022/11/12 09:42:06;;;;;;;13.17;5.90;;;;;;;7.63;100.00;97848.06;5056854;28;20200;-69
2022/11/12 09:44:37;;;;;;;13.33;5.67;;;;;;;7.73;100.00;97846.38;5060122;28;20201;-69
2022/11/12 09:47:12;;;;;;;11.33;5.77;;;;;;;7.67;100.00;97848.66;5065900;28;20235;-68
2022/11/12 09:49:46;;;;;;;17.10;5.20;;;;;;;7.61;100.00;97842.13;5057068;28;20207;-68
2022/11/12 09:52:18;;;;;;;16.20;5.90;;;;;;;7.72;100.00;97842.09;5057193;28;20199;-68
2022/11/12 09:54:45;;;;;;;12.47;6.43;;;;;;;7.70;100.00;97840.53;5057268;28;20198;-68
2022/11/12 09:57:14;;;;;;;9.20;5.00;;;;;;;7.69;100.00;97838.88;5059288;28;20227;-68
2022/11/12 09:59:42;;;;;;;9.63;5.43;;;;;;;7.89;100.00;97841.59;5064642;28;20577;-68
2022/11/12 10:02:25;;;;;;;15.27;4.83;;;;;;;7.80;100.00;97839.69;5056631;28;20208;-68
2022/11/12 10:05:17;;;;;;;13.93;5.57;;;;;;;7.99;100.00;97832.88;5056815;28;20203;-69
2022/11/12 10:07:57;;;;;;;12.60;5.60;;;;;;;7.91;100.00;97837.06;5062505;28;20231;-68
2022/11/12 10:10:34;;;;;;;10.57;5.27;;;;;;;7.99;100.00;97832.88;5057022;28;20212;-67
2022/11/12 10:13:15;;;;;;;11.03;5.50;;;;;;;7.88;100.00;97832.88;5058993;28;20196;-68
2022/11/12 10:18:50;;;;;;;13.17;5.70;;;;;;;7.83;100.00;97836.84;5060600;28;20249;-69
2022/11/12 10:21:27;;;;;;;11.03;5.63;;;;;;;7.95;100.00;97830.59;5060861;28;20206;-72
2022/11/12 10:23:53;;;;;;;10.43;5.23;;;;;;;7.89;100.00;97833.72;5056983;28;20226;-68
2022/11/12 10:26:22;;;;;;;11.00;5.53;;;;;;;7.94;100.00;97824.53;5060394;28;20215;-67
2022/11/12 10:28:59;;;;;;;10.40;5.30;;;;;;;8.05;100.00;97821.88;5060871;28;20200;-68
2022/11/12 10:31:25;;;;;;;14.33;5.63;;;;;;;8.02;100.00;97826.53;5068739;28;20204;-69
2022/11/12 10:34:02;;;;;;;12.93;6.20;;;;;;;8.01;100.00;97819.63;5059859;28;20196;-69
2022/11/12 10:36:32;;;;;;;10.93;6.13;;;;;;;8.21;100.00;97819.72;5059403;28;20218;-67
2022/11/12 10:38:59;;;;;;;18.47;6.83;;;;;;;7.88;100.00;97813.69;5060142;28;20208;-72
2022/11/12 10:41:29;;;;;;;14.43;6.40;;;;;;;7.88;100.00;97821.56;5061108;28;20200;-70
2022/11/12 10:43:59;;;;;;;13.00;6.03;;;;;;;8.17;100.00;97814.81;5060188;28;20618;-72
2022/11/12 10:46:28;;;;;;;10.10;5.40;;;;;;;8.17;100.00;97814.81;5060244;28;20212;-70
2022/11/12 10:49:01;;;;;;;9.67;5.20;;;;;;;8.37;100.00;97807.00;5063823;28;20255;-70
2022/11/12 10:51:30;;;;;;;18.23;7.10;;;;;;;8.17;100.00;97804.31;5060868;28;20205;-70
2022/11/12 10:53:57;;;;;;;29.50;8.77;;;;;;;8.23;100.00;97798.56;5059869;28;20196;-71
2022/11/12 10:56:27;;;;;;;14.63;6.50;;;;;;;8.28;100.00;97799.84;5059454;28;20205;-70
2022/11/12 10:59:19;;;;;;;15.30;5.97;;;;;;;8.39;100.00;97810.34;5060100;28;20680;-70
2022/11/12 11:01:53;;;;;;;13.00;5.77;;;;;;;8.44;100.00;97802.06;5060093;28;20200;-71
2022/11/12 11:04:28;;;;;;;13.20;5.83;;;;;;;8.39;100.00;97801.59;5066856;28;20687;-70
2022/11/12 11:07:05;;;;;;;12.10;6.73;;;;;;;8.40;100.00;97814.63;5056589;28;20285;-70
2022/11/12 11:09:32;;;;;;;14.43;6.07;;;;;;;8.17;100.00;97809.56;5068036;28;20211;-70
2022/11/12 11:11:59;;;;;;;10.50;6.13;;;;;;;8.43;100.00;97803.88;5059914;28;20200;-70
2022/11/12 11:14:32;;;;;;;11.73;5.90;;;;;;;8.28;100.00;97799.84;5067123;28;20234;-72
2022/11/12 11:17:01;;;;;;;7.87;4.73;;;;;;;8.29;100.00;97798.09;5059809;28;20627;-71
2022/11/12 11:19:35;;;;;;;10.27;5.50;;;;;;;8.48;100.00;97791.19;5059385;28;20201;-70
2022/11/12 11:22:21;;;;;;;9.87;5.20;;;;;;;8.62;100.00;97791.69;5059855;28;20643;-70
2022/11/12 11:24:58;;;;;;;12.17;6.10;;;;;;;8.58;100.00;97779.78;5058619;28;20208;-72
2022/11/12 11:27:32;;;;;;;12.33;6.20;;;;;;;8.65;100.00;97785.34;5059152;28;20239;-72
2022/11/12 11:30:08;;;;;;;8.97;4.90;;;;;;;8.72;100.00;97782.09;5059560;28;20209;-72
2022/11/12 11:33:15;;;;;;;12.13;6.30;;;;;;;8.78;100.00;97789.47;5058785;28;20579;-70
2022/11/12 11:35:53;;;;;;;11.17;5.97;;;;;;;8.74;100.00;97785.41;5059052;28;20205;-70
2022/11/12 11:38:34;;;;;;;9.40;5.30;;;;;;;8.62;100.00;97781.19;5059046;28;20220;-70
2022/11/12 11:41:20;;;;;;;9.57;5.30;;;;;;;8.64;100.00;97774.03;5059627;28;20250;-70
2022/11/12 11:43:58;;;;;;;9.27;5.50;;;;;;;8.68;100.00;97770.19;5055798;28;20227;-72
2022/11/12 11:46:45;;;;;;;11.90;6.27;;;;;;;8.65;100.00;97770.41;5056715;28;20204;-70
2022/11/12 11:49:42;;;;;;;12.93;6.13;;;;;;;8.56;100.00;97762.47;5058980;28;20690;-70
2022/11/12 11:52:24;;;;;;;14.77;6.80;;;;;;;8.47;100.00;97762.41;5058145;28;20652;-70
2022/11/12 11:55:07;;;;;;;18.73;6.40;;;;;;;8.08;100.00;97760.41;5059355;28;20206;-70
2022/11/12 11:57:41;;;;;;;12.20;6.07;;;;;;;8.20;100.00;97756.81;5058920;28;20230;-72
2022/11/12 12:00:15;;;;;;;13.67;6.87;;;;;;;8.37;100.00;97753.63;5058716;28;20199;-70
2022/11/12 12:02:59;;;;;;;11.40;5.80;;;;;;;8.24;100.00;97752.97;5058047;28;20207;-71
2022/11/12 12:05:38;;;;;;;12.03;6.50;;;;;;;8.19;100.00;97748.09;5059793;28;20200;-70